Time;durP1;ratioP1;P1;durP2;ratioP2;P2;SDS_P1;SDS_P2;PMS_P1;PMS_P2;Temp;Humidity;BMP_temperature;BMP_pressure;BME280_temperature;BME280_humidity;BME280_pressure;Samples;Min_cycle;Max_cycle;Signal;HPM_P1;HPM_P2
2023/04/02 00:00:03;;;;;;;;;;;;;;;-140.72;100.00;53145.75;5024963;28;20397;-69
2023/04/02 00:02:29;;;;;;;;;;;;;;;-140.72;100.00;53131.56;5024537;28;19943;-68
2023/04/02 00:05:18;;;;;;;;;;;;;;;-140.72;100.00;53141.69;5031608;28;19917;-69
2023/04/02 00:07:47;;;;;;;;;;;;;;;-140.72;100.00;53192.44;5033402;28;19936;-69
2023/04/02 00:10:31;;;;;;;;;;;;;;;-140.72;100.00;53109.22;5031373;28;19925;-69
2023/04/02 00:13:02;;;;;;;;;;;;;;;-140.72;100.00;53099.09;5028877;28;19944;-68
2023/04/02 00:15:28;;;;;;;;;;;;;;;-140.72;100.00;53141.69;5022611;28;20012;-68
2023/04/02 00:17:55;;;;;;;;;;;;;;;-140.72;100.00;53131.56;5023361;28;19960;-69
2023/04/02 00:20:21;;;;;;;;;;;;;;;-140.72;100.00;53166.06;5030788;28;19928;-68
2023/04/02 00:23:19;;;;;;;;;;;;;;;-140.72;100.00;53121.41;5032502;28;19924;-69
2023/04/02 00:25:46;;;;;;;;;;;;;;;-140.72;100.00;53178.22;5015778;28;20272;-68
2023/04/02 00:28:12;;;;;;;;;;;;;;;-140.72;100.00;53139.69;5025720;28;20389;-68
2023/04/02 00:33:30;;;;;;;;;;;;;;;-140.72;100.00;53115.31;5032140;28;19917;-68
2023/04/02 00:35:55;;;;;;;;;;;;;;;-140.72;100.00;53188.38;5030336;28;19983;-69
2023/04/02 00:38:26;;;;;;;;;;;;;;;-140.72;100.00;53131.56;5031311;28;20399;-69
2023/04/02 00:40:53;;;;;;;;;;;;;;;-140.72;100.00;53149.81;5031035;28;19923;-68
2023/04/02 00:43:19;;;;;;;;;;;;;;;-140.72;100.00;53141.69;5030255;28;19991;-69
2023/04/02 00:45:49;;;;;;;;;;;;;;;-140.72;100.00;53170.13;5023480;28;20287;-69
2023/04/02 00:48:35;;;;;;;;;;;;;;;-140.72;100.00;53153.88;5021875;28;19970;-69
2023/04/02 00:51:09;;;;;;;;;;;;;;;-140.72;100.00;53172.16;5029442;28;19917;-69
2023/04/02 00:53:35;;;;;;;;;;;;;;;-140.72;100.00;53145.75;5029164;28;19924;-68
2023/04/02 00:56:02;;;;;;;;;;;;;;;-140.72;100.00;53166.06;5030245;28;19917;-69
2023/04/02 00:58:28;;;;;;;;;;;;;;;-140.72;100.00;53111.25;5024742;28;19920;-69
2023/04/02 01:00:54;;;;;;;;;;;;;;;-140.72;100.00;53145.75;5030501;28;19940;-69
2023/04/02 01:03:27;;;;;;;;;;;;;;;-140.72;100.00;53131.56;5028634;28;20233;-69
2023/04/02 01:06:00;;;;;;;;;;;;;;;-140.72;100.00;53121.41;5030346;28;20332;-69
2023/04/02 01:08:42;;;;;;;;;;;;;;;-140.72;100.00;53172.16;5031278;28;19921;-69
2023/04/02 01:11:18;;;;;;;;;;;;;;;-140.72;100.00;53141.69;5028531;28;19922;-69
2023/04/02 01:13:54;;;;;;;;;;;;;;;-140.72;100.00;53176.22;5028659;28;20363;-69
2023/04/02 01:16:31;;;;;;;;;;;;;;;-140.72;100.00;53097.06;5016470;28;20004;-69
2023/04/02 01:18:57;;;;;;;;;;;;;;;-140.72;100.00;53147.78;5019685;28;19940;-69
2023/04/02 01:21:29;;;;;;;;;;;;;;;-140.72;100.00;53151.84;5014246;28;20372;-69
2023/04/02 01:23:57;;;;;;;;;;;;;;;-140.72;100.00;53139.69;5025095;28;19964;-69
2023/04/02 01:26:26;;;;;;;;;;;;;;;-140.72;100.00;53166.06;5011099;28;19917;-69
2023/04/02 01:28:51;;;;;;;;;;;;;;;-140.72;100.00;53166.06;5030686;28;19917;-69
2023/04/02 01:31:16;;;;;;;;;;;;;;;-140.72;100.00;53137.66;5032206;28;19917;-69
2023/04/02 01:33:57;;;;;;;;;;;;;;;-140.72;100.00;53121.41;5028377;28;19960;-69
2023/04/02 01:36:35;;;;;;;;;;;;;;;-140.72;100.00;53159.97;5033099;28;19974;-69
2023/04/02 01:42:32;;;;;;;;;;;;;;;-140.72;100.00;53157.94;5022603;28;19924;-69
2023/04/02 01:45:11;;;;;;;;;;;;;;;-140.72;100.00;53208.69;5021486;28;19971;-68
2023/04/02 01:47:37;;;;;;;;;;;;;;;-140.72;100.00;53149.81;5032782;28;19917;-68
2023/04/02 01:50:10;;;;;;;;;;;;;;;-140.72;100.00;53186.34;5032436;28;19931;-69
2023/04/02 01:52:40;;;;;;;;;;;;;;;-140.72;100.00;53125.47;5017363;28;19917;-69
2023/04/02 01:55:06;;;;;;;;;;;;;;;-140.72;100.00;53119.38;5024707;28;19952;-69
2023/04/02 01:57:32;;;;;;;;;;;;;;;-140.72;100.00;53129.53;5030685;28;19932;-69
2023/04/02 01:59:59;;;;;;;;;;;;;;;-140.72;100.00;53170.13;5042095;28;19921;-69
2023/04/02 02:02:25;;;;;;;;;;;;;;;-140.72;100.00;53113.28;5030389;28;20016;-69
2023/04/02 02:04:50;;;;;;;;;;;;;;;-140.72;100.00;53139.69;5014899;28;20354;-68
2023/04/02 02:07:17;;;;;;;;;;;;;;;-140.72;100.00;53178.22;5021920;28;19971;-69
2023/04/02 02:09:43;;;;;;;;;;;;;;;-140.72;100.00;53129.53;5021014;28;19918;-69
2023/04/02 02:12:12;;;;;;;;;;;;;;;-140.72;100.00;53188.38;5024781;28;19924;-69
2023/04/02 02:14:37;;;;;;;;;;;;;;;-140.72;100.00;53137.66;5013666;28;19917;-69
2023/04/02 02:17:12;;;;;;;;;;;;;;;-140.72;100.00;53157.94;5018805;28;19940;-69
2023/04/02 02:19:39;;;;;;;;;;;;;;;-140.72;100.00;53174.19;5031472;28;19917;-68
2023/04/02 02:22:07;;;;;;;;;;;;;;;-140.72;100.00;53162.00;5033600;28;19917;-69
2023/04/02 02:24:35;;;;;;;;;;;;;;;-140.72;100.00;53170.13;5046251;28;19924;-69
2023/04/02 02:27:06;;;;;;;;;;;;;;;-140.72;100.00;53162.00;5027423;28;19917;-69
2023/04/02 02:29:35;;;;;;;;;;;;;;;-140.72;100.00;53153.88;5022397;28;19921;-68
2023/04/02 02:32:01;;;;;;;;;;;;;;;-140.72;100.00;53182.28;5033424;28;19918;-69
2023/04/02 02:34:34;;;;;;;;;;;;;;;-140.72;100.00;53188.38;5032628;28;20015;-72
2023/04/02 02:37:21;;;;;;;;;;;;;;;-140.72;100.00;53170.13;5033320;28;19924;-70
2023/04/02 02:39:48;;;;;;;;;;;;;;;-140.72;100.00;53170.13;5017140;28;19922;-69
2023/04/02 02:42:17;;;;;;;;;;;;;;;-140.72;100.00;53141.69;5014323;28;20011;-69
2023/04/02 02:44:43;;;;;;;;;;;;;;;-140.72;100.00;53149.81;5024254;28;19921;-72
2023/04/02 02:47:12;;;;;;;;;;;;;;;-140.72;100.00;53180.25;5038262;28;19924;-69
2023/04/02 02:49:42;;;;;;;;;;;;;;;-140.72;100.00;53174.19;5036855;28;20451;-68
2023/04/02 02:52:08;;;;;;;;;;;;;;;-140.72;100.00;53170.13;5041218;28;20282;-68
2023/04/02 02:54:39;;;;;;;;;;;;;;;-140.72;100.00;53105.19;5026332;28;20008;-68
2023/04/02 02:57:06;;;;;;;;;;;;;;;-140.72;100.00;53162.00;5031287;28;19923;-69
2023/04/02 02:59:32;;;;;;;;;;;;;;;-140.72;100.00;53178.22;5033567;28;19955;-69
2023/04/02 03:01:58;;;;;;;;;;;;;;;-140.72;100.00;53162.00;5029091;28;19966;-68
2023/04/02 03:04:24;;;;;;;;;;;;;;;-140.72;100.00;53194.47;5011605;28;19925;-69
2023/04/02 03:06:51;;;;;;;;;;;;;;;-140.72;100.00;53166.06;5032196;28;19962;-69
2023/04/02 03:09:32;;;;;;;;;;;;;;;-140.72;100.00;53141.69;5025991;28;20311;-69
2023/04/02 03:12:00;;;;;;;;;;;;;;;-140.72;100.00;53155.91;5031460;28;19921;-69
2023/04/02 03:14:26;;;;;;;;;;;;;;;-140.72;100.00;53172.16;5038914;28;19917;-69
2023/04/02 03:16:55;;;;;;;;;;;;;;;-140.72;100.00;53172.16;5026974;28;20291;-69
2023/04/02 03:19:28;;;;;;;;;;;;;;;-140.72;100.00;53170.13;5032793;28;19940;-69
2023/04/02 03:22:02;;;;;;;;;;;;;;;-140.72;100.00;53153.88;5029887;28;19928;-69
2023/04/02 03:24:34;;;;;;;;;;;;;;;-140.72;100.00;53184.31;5032335;28;19917;-69
2023/04/02 03:27:16;;;;;;;;;;;;;;;-140.72;100.00;53149.81;5032137;28;19992;-69
2023/04/02 03:29:48;;;;;;;;;;;;;;;-140.72;100.00;53166.06;5031503;28;19944;-69
2023/04/02 03:32:13;;;;;;;;;;;;;;;-140.72;100.00;53151.84;5035947;28;19917;-68
2023/04/02 03:34:45;;;;;;;;;;;;;;;-140.72;100.00;53143.72;5018891;28;19921;-69
2023/04/02 03:37:17;;;;;;;;;;;;;;;-140.72;100.00;53168.09;5019410;28;20073;-69
2023/04/02 03:39:46;;;;;;;;;;;;;;;-140.72;100.00;53147.78;5031599;28;19921;-68
2023/04/02 03:42:11;;;;;;;;;;;;;;;-140.72;100.00;53190.41;5016212;28;19949;-69
2023/04/02 03:44:36;;;;;;;;;;;;;;;-140.72;100.00;53164.03;5021056;28;19960;-69
2023/04/02 03:47:11;;;;;;;;;;;;;;;-140.72;100.00;53206.66;5031898;28;20297;-69
2023/04/02 03:49:47;;;;;;;;;;;;;;;-140.72;100.00;53182.28;5032345;28;19917;-69
2023/04/02 03:52:13;;;;;;;;;;;;;;;-140.72;100.00;53141.69;5031909;28;19921;-69
2023/04/02 03:54:39;;;;;;;;;;;;;;;-140.72;100.00;53188.38;5030214;28;19923;-69
2023/04/02 03:57:14;;;;;;;;;;;;;;;-140.72;100.00;53159.97;5030621;28;19920;-69
2023/04/02 03:59:46;;;;;;;;;;;;;;;-140.72;100.00;53143.72;5038965;28;19921;-69
2023/04/02 04:02:30;;;;;;;;;;;;;;;-140.72;100.00;53174.19;5030176;28;19924;-69
2023/04/02 04:04:56;;;;;;;;;;;;;;;-140.72;100.00;53166.06;5031788;28;19972;-69
2023/04/02 04:07:27;;;;;;;;;;;;;;;-140.72;100.00;53202.59;5040790;28;20413;-69
2023/04/02 04:09:53;;;;;;;;;;;;;;;-140.72;100.00;53178.22;5035996;28;20028;-69
2023/04/02 04:12:24;;;;;;;;;;;;;;;-140.72;100.00;53192.44;5036315;28;20418;-69
2023/04/02 04:15:03;;;;;;;;;;;;;;;-140.72;100.00;53147.78;5031614;28;19921;-69
2023/04/02 04:17:48;;;;;;;;;;;;;;;-140.72;100.00;53182.28;5030624;28;19924;-69
2023/04/02 04:20:16;;;;;;;;;;;;;;;-140.72;100.00;53233.03;5012529;28;20004;-69
2023/04/02 04:22:41;;;;;;;;;;;;;;;-140.72;100.00;53119.38;5029884;28;19940;-69
2023/04/02 04:25:17;;;;;;;;;;;;;;;-140.72;100.00;53170.13;5032180;28;20040;-69
2023/04/02 04:27:47;;;;;;;;;;;;;;;-140.72;100.00;53182.28;5024724;28;19917;-69
2023/04/02 04:30:17;;;;;;;;;;;;;;;-140.72;100.00;53198.53;5012045;28;19962;-69
2023/04/02 04:32:56;;;;;;;;;;;;;;;-140.72;100.00;53178.22;5027463;28;20012;-69
2023/04/02 04:35:28;;;;;;;;;;;;;;;-140.72;100.00;53176.22;5028370;28;20419;-69
2023/04/02 04:37:58;;;;;;;;;;;;;;;-140.72;100.00;53186.34;5018002;28;19999;-69
2023/04/02 04:40:27;;;;;;;;;;;;;;;-140.72;100.00;53162.00;5031530;28;20409;-69
2023/04/02 04:42:54;;;;;;;;;;;;;;;-140.72;100.00;53194.47;5021900;28;19921;-69
2023/04/02 04:45:31;;;;;;;;;;;;;;;-140.72;100.00;53180.25;5031185;28;19924;-69
2023/04/02 04:47:58;;;;;;;;;;;;;;;-140.72;100.00;53170.13;5022309;28;19921;-69
2023/04/02 04:50:30;;;;;;;;;;;;;;;-140.72;100.00;53198.53;5022406;28;19921;-69
2023/04/02 04:52:55;;;;;;;;;;;;;;;-140.72;100.00;53226.94;5018913;28;19917;-69
2023/04/02 04:55:41;;;;;;;;;;;;;;;-140.72;100.00;53208.69;5028280;28;20371;-71
2023/04/02 04:58:10;;;;;;;;;;;;;;;-140.72;100.00;53210.72;5034105;28;19949;-68
2023/04/02 05:00:46;;;;;;;;;;;;;;;-140.72;100.00;53198.53;5034340;28;19921;-69
2023/04/02 05:03:16;;;;;;;;;;;;;;;-140.72;100.00;53164.03;5021197;28;19926;-68
2023/04/02 05:05:41;;;;;;;;;;;;;;;-140.72;100.00;53202.59;5040193;28;20526;-68
2023/04/02 05:08:20;;;;;;;;;;;;;;;-140.72;100.00;53222.88;5034247;28;19917;-70
2023/04/02 05:10:45;;;;;;;;;;;;;;;-140.72;100.00;53208.69;5022945;28;19917;-69
2023/04/02 05:13:20;;;;;;;;;;;;;;;-140.72;100.00;53200.56;5020959;28;19928;-70
2023/04/02 05:15:49;;;;;;;;;;;;;;;-140.72;100.00;53182.28;5025934;28;19917;-74
2023/04/02 05:18:15;;;;;;;;;;;;;;;-140.72;100.00;53194.47;5029692;28;19936;-73
2023/04/02 05:20:53;;;;;;;;;;;;;;;-140.72;100.00;53186.34;5013087;28;20380;-68
2023/04/02 05:23:18;;;;;;;;;;;;;;;-140.72;100.00;53190.41;5030432;28;20012;-69
2023/04/02 05:25:51;;;;;;;;;;;;;;;-140.72;100.00;53162.00;5029081;28;20387;-69
2023/04/02 05:28:20;;;;;;;;;;;;;;;-140.72;100.00;53147.78;5019064;28;19918;-70
2023/04/02 05:30:51;;;;;;;;;;;;;;;-140.72;100.00;53180.25;5032820;28;19924;-69
2023/04/02 05:33:30;;;;;;;;;;;;;;;-140.72;100.00;53174.19;5030756;28;19959;-69
2023/04/02 05:36:07;;;;;;;;;;;;;;;-140.72;100.00;53202.59;5028089;28;19924;-69
2023/04/02 05:38:34;;;;;;;;;;;;;;;-140.72;100.00;53208.69;5020395;28;19960;-69
2023/04/02 05:41:03;;;;;;;;;;;;;;;-140.72;100.00;53176.22;5031856;28;19917;-69
2023/04/02 05:43:31;;;;;;;;;;;;;;;-140.72;100.00;53198.53;5023132;28;19964;-68
2023/04/02 05:45:59;;;;;;;;;;;;;;;-140.72;100.00;53178.22;5033052;28;19921;-69
2023/04/02 05:48:28;;;;;;;;;;;;;;;-140.72;100.00;53178.22;5033733;28;20397;-69
2023/04/02 05:50:54;;;;;;;;;;;;;;;-140.72;100.00;53196.50;5028498;28;19921;-69
2023/04/02 05:53:23;;;;;;;;;;;;;;;-140.72;100.00;53190.41;5029110;28;19917;-70
2023/04/02 05:55:52;;;;;;;;;;;;;;;-140.72;100.00;53257.38;5021408;28;19917;-69
2023/04/02 05:58:35;;;;;;;;;;;;;;;-140.72;100.00;53192.44;5023764;28;20328;-70
2023/04/02 06:01:19;;;;;;;;;;;;;;;-140.72;100.00;53180.25;5031607;28;19928;-68
2023/04/02 06:03:49;;;;;;;;;;;;;;;-140.72;100.00;53251.31;5024625;28;19917;-68
2023/04/02 06:06:34;;;;;;;;;;;;;;;-140.72;100.00;53214.78;5020451;28;19924;-68
2023/04/02 06:09:04;;;;;;;;;;;;;;;-140.72;100.00;53174.19;5039045;28;19985;-68
2023/04/02 06:11:32;;;;;;;;;;;;;;;-140.72;100.00;53182.28;5030495;28;19917;-68
2023/04/02 06:13:57;;;;;;;;;;;;;;;-140.72;100.00;53192.44;5021937;28;19925;-68
2023/04/02 06:16:25;;;;;;;;;;;;;;;-140.72;100.00;53206.66;5029992;28;19917;-68
2023/04/02 06:18:50;;;;;;;;;;;;;;;-140.72;100.00;53182.28;5042316;28;19917;-68
2023/04/02 06:24:21;;;;;;;;;;;;;;;-140.72;100.00;53198.53;5034652;28;19943;-68
2023/04/02 06:26:52;;;;;;;;;;;;;;;-140.72;100.00;53178.22;5022386;28;19918;-69
2023/04/02 06:29:23;;;;;;;;;;;;;;;-140.72;100.00;53188.38;5031211;28;19917;-72
2023/04/02 06:31:50;;;;;;;;;;;;;;;-140.72;100.00;53192.44;5027561;28;19954;-69
2023/04/02 06:34:17;;;;;;;;;;;;;;;-140.72;100.00;53192.44;5032568;28;19937;-68
2023/04/02 06:36:43;;;;;;;;;;;;;;;-140.72;100.00;53194.47;5034820;28;19953;-68
2023/04/02 06:39:15;;;;;;;;;;;;;;;-140.72;100.00;53186.34;5025022;28;19925;-68
2023/04/02 06:41:40;;;;;;;;;;;;;;;-140.72;100.00;53176.22;5031077;28;20764;-68
2023/04/02 06:44:10;;;;;;;;;;;;;;;-140.72;100.00;53174.19;5028631;28;19921;-68
2023/04/02 06:46:42;;;;;;;;;;;;;;;-140.72;100.00;53157.94;5028387;28;20291;-68
2023/04/02 06:49:20;;;;;;;;;;;;;;;-140.72;100.00;53149.81;5029496;28;19921;-68
2023/04/02 06:51:46;;;;;;;;;;;;;;;-140.72;100.00;53182.28;5026553;28;19921;-68
2023/04/02 06:54:13;;;;;;;;;;;;;;;-140.72;100.00;53184.31;5027924;28;20378;-69
2023/04/02 06:56:44;;;;;;;;;;;;;;;-140.72;100.00;53184.31;5020825;28;19916;-68
2023/04/02 06:59:11;;;;;;;;;;;;;;;-140.72;100.00;53155.91;5031469;28;19970;-68
2023/04/02 07:01:42;;;;;;;;;;;;;;;-140.72;100.00;53170.13;5047724;27;20398;-69
2023/04/02 07:04:08;;;;;;;;;;;;;;;-140.72;100.00;53170.13;5033233;28;19922;-71
2023/04/02 07:06:48;;;;;;;;;;;;;;;-140.72;100.00;53190.41;5032888;28;20375;-68
2023/04/02 07:12:25;;;;;;;;;;;;;;;-140.72;100.00;53202.59;5028411;28;19925;-72
2023/04/02 07:14:50;;;;;;;;;;;;;;;-140.72;100.00;53202.59;5034114;28;19931;-70
2023/04/02 07:17:20;;;;;;;;;;;;;;;-140.72;100.00;53168.09;5028914;28;19921;-70
2023/04/02 07:19:48;;;;;;;;;;;;;;;-140.72;100.00;53202.59;5026696;28;19928;-69
2023/04/02 07:22:14;;;;;;;;;;;;;;;-140.72;100.00;53180.25;5036272;28;19925;-70
2023/04/02 07:24:39;;;;;;;;;;;;;;;-140.72;100.00;53190.41;5023858;28;19921;-69
2023/04/02 07:27:05;;;;;;;;;;;;;;;-140.72;100.00;53174.19;5026889;28;19936;-70
2023/04/02 07:29:30;;;;;;;;;;;;;;;-140.72;100.00;53214.78;5034113;28;19925;-73
2023/04/02 07:31:55;;;;;;;;;;;;;;;-140.72;100.00;53180.25;5027236;28;19922;-71
2023/04/02 07:34:20;;;;;;;;;;;;;;;-140.72;100.00;53208.69;5027458;28;20356;-72
2023/04/02 07:36:47;;;;;;;;;;;;;;;-140.72;100.00;53190.41;5039591;28;20340;-71
2023/04/02 07:39:13;;;;;;;;;;;;;;;-140.72;100.00;53164.03;5029119;28;19965;-71
2023/04/02 07:41:51;;;;;;;;;;;;;;;-140.72;100.00;53162.00;5029112;28;20013;-71
2023/04/02 07:44:17;;;;;;;;;;;;;;;-140.72;100.00;53153.88;5026264;28;19921;-72
2023/04/02 07:46:42;;;;;;;;;;;;;;;-140.72;100.00;53139.69;5023837;28;19929;-71
2023/04/02 07:49:07;;;;;;;;;;;;;;;-140.72;100.00;53137.66;5032248;28;20382;-71
2023/04/02 07:51:32;;;;;;;;;;;;;;;-140.72;100.00;53166.06;5032931;28;19946;-69
2023/04/02 07:54:01;;;;;;;;;;;;;;;-140.72;100.00;53192.44;5034441;28;19921;-69
2023/04/02 07:56:30;;;;;;;;;;;;;;;-140.72;100.00;53178.22;5026752;28;19928;-71
2023/04/02 07:58:55;;;;;;;;;;;;;;;-140.72;100.00;53182.28;5030185;28;19921;-70
2023/04/02 08:01:23;;;;;;;;;;;;;;;-140.72;100.00;53198.53;5029280;28;20452;-71
2023/04/02 08:03:48;;;;;;;;;;;;;;;-140.72;100.00;53176.22;5025075;28;20394;-70
2023/04/02 08:06:14;;;;;;;;;;;;;;;-140.72;100.00;53182.28;5023570;28;19925;-70
2023/04/02 08:08:51;;;;;;;;;;;;;;;-140.72;100.00;53166.06;5029017;28;19935;-70
2023/04/02 08:11:16;;;;;;;;;;;;;;;-140.72;100.00;53186.34;5027513;28;20260;-70
2023/04/02 08:13:42;;;;;;;;;;;;;;;-140.72;100.00;53162.00;5029970;28;19951;-70
2023/04/02 08:16:07;;;;;;;;;;;;;;;-140.72;100.00;53162.00;5025562;28;19921;-70
2023/04/02 08:18:33;;;;;;;;;;;;;;;-140.72;100.00;53139.69;5034182;28;19945;-68
2023/04/02 08:20:58;;;;;;;;;;;;;;;-140.72;100.00;53117.34;5032223;28;19921;-70
2023/04/02 08:23:24;;;;;;;;;;;;;;;-140.72;100.00;53141.69;5028012;28;19921;-69
2023/04/02 08:25:49;;;;;;;;;;;;;;;-140.72;100.00;53133.59;5030475;28;19989;-70
2023/04/02 08:28:14;;;;;;;;;;;;;;;-140.72;100.00;53168.09;5033056;28;19935;-67
2023/04/02 08:30:40;;;;;;;;;;;;;;;-140.72;100.00;53109.22;5032537;27;20264;-70
2023/04/02 08:33:06;;;;;;;;;;;;;;;-140.72;100.00;53151.84;5032075;28;19922;-68
2023/04/02 08:35:31;;;;;;;;;;;;;;;-140.72;100.00;53133.59;5026802;28;20406;-68
2023/04/02 08:37:56;;;;;;;;;;;;;;;-140.72;100.00;53133.59;5042082;28;20421;-73
2023/04/02 08:40:28;;;;;;;;;;;;;;;-140.72;100.00;53115.31;5024472;28;19967;-72
2023/04/02 08:43:12;;;;;;;;;;;;;;;-140.72;100.00;53101.13;5040687;28;19933;-68
2023/04/02 08:45:58;;;;;;;;;;;;;;;-140.72;100.00;53093.00;5033886;27;19998;-68
2023/04/02 08:48:24;;;;;;;;;;;;;;;-140.72;100.00;53159.97;5021802;28;20394;-68
2023/04/02 08:50:50;;;;;;;;;;;;;;;-140.72;100.00;53121.41;5018155;28;19921;-68
2023/04/02 08:53:21;;;;;;;;;;;;;;;-140.72;100.00;53107.19;5024660;28;20015;-69
2023/04/02 08:56:02;;;;;;;;;;;;;;;-140.72;100.00;53155.91;5028118;28;20016;-69
2023/04/02 08:58:37;;;;;;;;;;;;;;;-140.72;100.00;53105.19;5013770;28;19940;-69
2023/04/02 09:01:03;;;;;;;;;;;;;;;-140.72;100.00;53159.97;5021023;28;20832;-69
2023/04/02 09:03:44;;;;;;;;;;;;;;;-140.72;100.00;53139.69;5022814;28;20348;-69
2023/04/02 09:06:12;;;;;;;;;;;;;;;-140.72;100.00;53162.00;5025387;28;19921;-70
2023/04/02 09:08:38;;;;;;;;;;;;;;;-140.72;100.00;53141.69;5030173;28;19986;-69
2023/04/02 09:11:06;;;;;;;;;;;;;;;-140.72;100.00;53151.84;5024633;28;19921;-69
2023/04/02 09:13:33;;;;;;;;;;;;;;;-140.72;100.00;53164.03;5029349;28;20024;-69
2023/04/02 09:16:05;;;;;;;;;;;;;;;-140.72;100.00;53147.78;5021843;28;20340;-69
2023/04/02 09:18:31;;;;;;;;;;;;;;;-140.72;100.00;53133.59;5029773;28;20017;-69
2023/04/02 09:20:56;;;;;;;;;;;;;;;-140.72;100.00;53097.06;5024450;28;20386;-69
2023/04/02 09:23:22;;;;;;;;;;;;;;;-140.72;100.00;53145.75;5026202;28;19927;-69
2023/04/02 09:25:50;;;;;;;;;;;;;;;-140.72;100.00;53145.75;5027611;28;20019;-69
2023/04/02 09:28:16;;;;;;;;;;;;;;;-140.72;100.00;53088.94;5026762;28;20439;-69
2023/04/02 09:31:00;;;;;;;;;;;;;;;-140.72;100.00;53103.16;5026491;28;19929;-69
2023/04/02 09:33:42;;;;;;;;;;;;;;;-140.72;100.00;53145.75;5035287;28;19936;-68
2023/04/02 09:36:16;;;;;;;;;;;;;;;-140.72;100.00;53119.38;5049910;28;19929;-68
2023/04/02 09:38:55;;;;;;;;;;;;;;;-140.72;100.00;53162.00;5035904;28;19920;-68
2023/04/02 09:41:21;;;;;;;;;;;;;;;-140.72;100.00;53093.00;5024626;28;19925;-68
2023/04/02 09:43:47;;;;;;;;;;;;;;;-140.72;100.00;53109.22;5038049;28;19921;-68
2023/04/02 09:46:12;;;;;;;;;;;;;;;-140.72;100.00;53074.72;5024356;28;20330;-67
2023/04/02 09:48:42;;;;;;;;;;;;;;;-140.72;100.00;53058.50;5031268;28;20004;-68
2023/04/02 09:51:14;;;;;;;;;;;;;;;-140.72;100.00;53007.75;5028408;28;19928;-69
2023/04/02 09:53:44;;;;;;;;;;;;;;;-140.72;100.00;52987.47;5031109;28;19922;-69
2023/04/02 09:56:17;;;;;;;;;;;;;;;-140.72;100.00;52963.13;5027816;28;19921;-68
2023/04/02 09:58:43;;;;;;;;;;;;;;;-140.72;100.00;52973.25;5027784;28;19925;-68
2023/04/02 10:01:25;;;;;;;;;;;;;;;-140.72;100.00;53011.81;5026441;28;19921;-69
2023/04/02 10:03:50;;;;;;;;;;;;;;;-140.72;66.26;52957.03;5031022;28;20340;-69
2023/04/02 10:06:18;;;;;;;;;;;;;;;-140.72;33.86;52959.06;5025064;28;19921;-69
2023/04/02 10:08:44;;;;;;;;;;;;;;;-140.72;24.89;52981.38;5018004;28;19922;-69
2023/04/02 10:11:15;;;;;;;;;;;;;;;-140.72;21.38;52989.50;5027608;28;19967;-68
2023/04/02 10:13:59;;;;;;;;;;;;;;;-140.72;0.00;52922.53;5036182;28;20296;-68
2023/04/02 10:16:39;;;;;;;;;;;;;;;-140.72;0.00;52946.88;5032404;28;19928;-68
2023/04/02 10:19:17;;;;;;;;;;;;;;;-140.72;0.00;52930.66;5028350;28;20008;-70
2023/04/02 10:21:44;;;;;;;;;;;;;;;-140.72;0.00;52918.47;5031932;28;19972;-69
2023/04/02 10:24:15;;;;;;;;;;;;;;;-140.72;0.00;52871.78;5029151;28;20036;-70
2023/04/02 10:26:44;;;;;;;;;;;;;;;-140.72;0.00;52873.81;5029587;28;19933;-69
2023/04/02 10:29:21;;;;;;;;;;;;;;;-140.72;0.00;52898.16;5034454;28;19933;-69
2023/04/02 10:31:53;;;;;;;;;;;;;;;-140.72;0.00;52855.56;5041039;28;19921;-69
2023/04/02 10:34:44;;;;;;;;;;;;;;;-140.72;0.00;52802.78;5026312;28;19917;-68
2023/04/02 10:37:19;;;;;;;;;;;;;;;-140.72;0.00;52869.75;5035151;28;19921;-69
2023/04/02 10:39:49;;;;;;;;;;;;;;;-140.72;0.00;52888.03;5030074;28;19921;-70
2023/04/02 10:42:24;;;;;;;;;;;;;;;-140.72;0.00;52831.19;5026776;28;19922;-70
2023/04/02 10:44:57;;;;;;;;;;;;;;;-140.72;0.00;52829.19;5031096;28;19921;-70
2023/04/02 10:47:37;;;;;;;;;;;;;;;-140.72;0.00;52821.06;5034486;28;20375;-70
2023/04/02 10:50:19;;;;;;;;;;;;;;;-140.72;0.00;52782.50;5033452;28;20302;-69
2023/04/02 10:52:49;;;;;;;;;;;;;;;-140.72;0.00;52768.28;5026320;28;20099;-70
2023/04/02 10:55:24;;;;;;;;;;;;;;;-140.72;0.00;52745.97;5036321;28;19917;-69
2023/04/02 10:57:53;;;;;;;;;;;;;;;-140.72;0.00;52745.97;5032927;28;19921;-69
2023/04/02 11:00:29;;;;;;;;;;;;;;;-140.72;0.00;52715.53;5027685;28;20415;-68
2023/04/02 11:02:58;;;;;;;;;;;;;;;-140.72;0.00;52727.72;5033812;28;19921;-68
2023/04/02 11:05:42;;;;;;;;;;;;;;;-140.72;0.00;52644.50;5028873;28;20000;-69
2023/04/02 11:08:08;;;;;;;;;;;;;;;-140.72;0.00;52654.66;5026123;28;19926;-69
2023/04/02 11:10:35;;;;;;;;;;;;;;;-140.72;0.00;52697.28;5027834;28;19917;-68
2023/04/02 11:13:23;;;;;;;;;;;;;;;-140.72;0.00;52674.94;5029946;28;20406;-68
2023/04/02 11:15:48;;;;;;;;;;;;;;;-140.72;0.00;52695.25;5027374;28;19928;-69
2023/04/02 11:18:25;;;;;;;;;;;;;;;-140.72;0.00;52729.75;5029745;27;19918;-69
2023/04/02 11:20:53;;;;;;;;;;;;;;;-140.72;0.00;52650.59;5029964;28;19921;-69
2023/04/02 11:23:19;;;;;;;;;;;;;;;-140.72;0.00;52638.41;5046381;28;19985;-69
2023/04/02 11:25:44;;;;;;;;;;;;;;;-140.72;0.00;52660.75;5025483;28;20417;-69
2023/04/02 11:28:16;;;;;;;;;;;;;;;-140.72;0.00;52581.59;5023636;28;20024;-69
2023/04/02 11:30:41;;;;;;;;;;;;;;;-140.72;0.00;52628.28;5027308;28;19922;-71
2023/04/02 11:33:38;;;;;;;;;;;;;;;-140.72;0.00;52662.78;5032003;28;19921;-70
2023/04/02 11:36:23;;;;;;;;;;;;;;;-140.72;0.00;52591.75;5030198;28;20363;-69
2023/04/02 11:38:49;;;;;;;;;;;;;;;-140.72;0.00;52516.66;5031658;28;19921;-69
2023/04/02 11:41:35;;;;;;;;;;;;;;;-140.72;0.00;52532.91;5032136;28;19928;-69
2023/04/02 11:44:00;;;;;;;;;;;;;;;-140.72;0.00;52524.78;5031288;28;19922;-70
2023/04/02 11:46:28;;;;;;;;;;;;;;;-140.72;0.00;52583.63;5034497;28;19941;-69
2023/04/02 11:48:54;;;;;;;;;;;;;;;-140.72;0.00;52541.03;5028371;28;20054;-70
2023/04/02 11:51:19;;;;;;;;;;;;;;;-140.72;0.00;52561.31;5027374;28;19962;-71
2023/04/02 11:53:45;;;;;;;;;;;;;;;-140.72;0.00;52536.97;5030321;28;19966;-69
2023/04/02 11:56:29;;;;;;;;;;;;;;;-140.72;0.00;52522.75;5032115;28;20324;-70
2023/04/02 11:59:06;;;;;;;;;;;;;;;-140.72;0.00;52484.19;5027909;28;19978;-69
2023/04/02 12:01:44;;;;;;;;;;;;;;;-140.72;0.00;52508.56;5031818;28;19932;-69
2023/04/02 12:04:09;;;;;;;;;;;;;;;-140.72;0.00;52447.69;5029420;28;19974;-69
2023/04/02 12:06:38;;;;;;;;;;;;;;;-140.72;0.00;52459.84;5029040;28;19917;-69
2023/04/02 12:09:23;;;;;;;;;;;;;;;-140.72;0.00;52494.34;5035782;28;20387;-70
2023/04/02 12:11:50;;;;;;;;;;;;;;;-140.72;0.00;52463.91;5037523;28;20370;-69
2023/04/02 12:14:30;;;;;;;;;;;;;;;-140.72;0.00;52504.50;5021073;28;19929;-69
2023/04/02 12:16:56;;;;;;;;;;;;;;;-140.72;0.00;52461.88;5036860;28;20374;-70
2023/04/02 12:19:22;;;;;;;;;;;;;;;-140.72;0.00;52455.78;5031191;28;19921;-70
2023/04/02 12:21:47;;;;;;;;;;;;;;;-140.72;0.00;52476.09;5029541;28;20012;-69
2023/04/02 12:24:20;;;;;;;;;;;;;;;-140.72;0.00;52437.53;5029943;28;19960;-69
2023/04/02 12:26:46;;;;;;;;;;;;;;;-140.72;0.00;52409.13;5020605;28;19921;-69
2023/04/02 12:29:22;;;;;;;;;;;;;;;-140.72;0.00;52411.16;5026611;28;19996;-69
2023/04/02 12:31:48;;;;;;;;;;;;;;;-140.72;0.00;52443.63;5024050;28;19921;-69
2023/04/02 12:34:16;;;;;;;;;;;;;;;-140.72;0.00;52457.81;5027649;28;19928;-69
2023/04/02 12:37:04;;;;;;;;;;;;;;;-140.72;0.00;52427.38;5051359;27;19943;-69
2023/04/02 12:39:30;;;;;;;;;;;;;;;-140.72;0.00;52380.72;5024976;28;19921;-70
2023/04/02 12:41:58;;;;;;;;;;;;;;;-140.72;0.00;52364.47;5023380;28;19918;-69
2023/04/02 12:44:25;;;;;;;;;;;;;;;-140.72;0.00;52398.97;5038003;28;19925;-69
2023/04/02 12:46:51;;;;;;;;;;;;;;;-140.72;0.00;52384.78;5027046;28;19921;-69
2023/04/02 12:49:17;;;;;;;;;;;;;;;-140.72;0.00;52388.84;5025881;28;19921;-69